sensor_id;sensor_type;location;lat;lon;timestamp;temperature;humidity
71436;SHT31;59251;51.326;12.370;2023-03-23T00:02:29;13.06;70.60
71436;SHT31;59251;51.326;12.370;2023-03-23T00:04:58;12.99;70.79
71436;SHT31;59251;51.326;12.370;2023-03-23T00:07:25;13.08;70.46
71436;SHT31;59251;51.326;12.370;2023-03-23T00:09:53;13.10;70.16
71436;SHT31;59251;51.326;12.370;2023-03-23T00:12:26;13.10;70.02
71436;SHT31;59251;51.326;12.370;2023-03-23T00:14:54;13.10;69.90
71436;SHT31;59251;51.326;12.370;2023-03-23T00:17:20;13.01;70.25
71436;SHT31;59251;51.326;12.370;2023-03-23T00:19:45;13.08;70.23
71436;SHT31;59251;51.326;12.370;2023-03-23T00:22:16;12.99;70.46
71436;SHT31;59251;51.326;12.370;2023-03-23T00:24:44;12.98;70.36
71436;SHT31;59251;51.326;12.370;2023-03-23T00:27:10;12.98;70.27
71436;SHT31;59251;51.326;12.370;2023-03-23T00:29:40;13.02;70.12
71436;SHT31;59251;51.326;12.370;2023-03-23T00:32:06;13.09;69.97
71436;SHT31;59251;51.326;12.370;2023-03-23T00:34:32;13.05;69.80
71436;SHT31;59251;51.326;12.370;2023-03-23T00:36:59;13.16;69.40
71436;SHT31;59251;51.326;12.370;2023-03-23T00:39:26;13.19;69.27
71436;SHT31;59251;51.326;12.370;2023-03-23T00:41:53;13.23;68.73
71436;SHT31;59251;51.326;12.370;2023-03-23T00:44:19;13.22;68.94
71436;SHT31;59251;51.326;12.370;2023-03-23T00:46:49;13.23;68.78
71436;SHT31;59251;51.326;12.370;2023-03-23T00:49:17;13.26;68.61
71436;SHT31;59251;51.326;12.370;2023-03-23T00:51:43;13.22;68.70
71436;SHT31;59251;51.326;12.370;2023-03-23T00:54:09;13.18;68.84
71436;SHT31;59251;51.326;12.370;2023-03-23T00:56:35;13.24;68.60
71436;SHT31;59251;51.326;12.370;2023-03-23T00:59:02;13.27;68.60
71436;SHT31;59251;51.326;12.370;2023-03-23T01:01:28;13.18;68.96
71436;SHT31;59251;51.326;12.370;2023-03-23T01:03:53;13.18;68.99
71436;SHT31;59251;51.326;12.370;2023-03-23T01:06:29;13.18;68.75
71436;SHT31;59251;51.326;12.370;2023-03-23T01:08:56;13.10;69.13
71436;SHT31;59251;51.326;12.370;2023-03-23T01:11:22;13.01;69.41
71436;SHT31;59251;51.326;12.370;2023-03-23T01:13:47;12.88;69.70
71436;SHT31;59251;51.326;12.370;2023-03-23T01:16:13;12.88;69.70
71436;SHT31;59251;51.326;12.370;2023-03-23T01:18:39;12.81;69.86
71436;SHT31;59251;51.326;12.370;2023-03-23T01:21:10;12.85;69.71
71436;SHT31;59251;51.326;12.370;2023-03-23T01:23:36;12.77;69.70
71436;SHT31;59251;51.326;12.370;2023-03-23T01:26:07;12.72;69.85
71436;SHT31;59251;51.326;12.370;2023-03-23T01:28:33;12.78;69.41
71436;SHT31;59251;51.326;12.370;2023-03-23T01:31:07;12.77;69.36
71436;SHT31;59251;51.326;12.370;2023-03-23T01:33:33;12.77;69.37
71436;SHT31;59251;51.326;12.370;2023-03-23T01:36:03;12.87;68.89
71436;SHT31;59251;51.326;12.370;2023-03-23T01:38:29;12.81;68.89
71436;SHT31;59251;51.326;12.370;2023-03-23T01:40:56;12.78;68.93
71436;SHT31;59251;51.326;12.370;2023-03-23T01:43:21;12.92;68.68
71436;SHT31;59251;51.326;12.370;2023-03-23T01:45:46;12.95;68.66
71436;SHT31;59251;51.326;12.370;2023-03-23T01:48:17;12.99;68.42
71436;SHT31;59251;51.326;12.370;2023-03-23T01:53:33;12.98;68.31
71436;SHT31;59251;51.326;12.370;2023-03-23T01:56:01;12.98;68.21
71436;SHT31;59251;51.326;12.370;2023-03-23T01:58:31;12.99;68.16
71436;SHT31;59251;51.326;12.370;2023-03-23T02:00:58;13.01;68.17
71436;SHT31;59251;51.326;12.370;2023-03-23T02:03:27;12.99;68.09
71436;SHT31;59251;51.326;12.370;2023-03-23T02:05:54;12.99;68.27
71436;SHT31;59251;51.326;12.370;2023-03-23T02:08:24;12.98;68.31
71436;SHT31;59251;51.326;12.370;2023-03-23T02:10:52;12.96;68.43
71436;SHT31;59251;51.326;12.370;2023-03-23T02:13:17;13.01;68.27
71436;SHT31;59251;51.326;12.370;2023-03-23T02:16:28;12.95;68.47
71436;SHT31;59251;51.326;12.370;2023-03-23T02:35:31;12.89;68.85
71436;SHT31;59251;51.326;12.370;2023-03-23T02:38:01;13.03;68.44
71436;SHT31;59251;51.326;12.370;2023-03-23T02:40:32;13.02;68.44
71436;SHT31;59251;51.326;12.370;2023-03-23T02:42:58;13.06;68.21
71436;SHT31;59251;51.326;12.370;2023-03-23T02:45:27;12.96;68.53
71436;SHT31;59251;51.326;12.370;2023-03-23T02:47:54;12.95;68.61
71436;SHT31;59251;51.326;12.370;2023-03-23T02:50:23;12.96;68.73
71436;SHT31;59251;51.326;12.370;2023-03-23T02:52:52;12.85;68.85
71436;SHT31;59251;51.326;12.370;2023-03-23T02:55:19;12.84;68.97
71436;SHT31;59251;51.326;12.370;2023-03-23T02:57:48;12.85;68.98
71436;SHT31;59251;51.326;12.370;2023-03-23T03:00:16;12.85;68.92
71436;SHT31;59251;51.326;12.370;2023-03-23T03:02:46;12.93;69.02
71436;SHT31;59251;51.326;12.370;2023-03-23T03:05:38;12.78;69.30
71436;SHT31;59251;51.326;12.370;2023-03-23T03:15:47;12.71;69.56
71436;SHT31;59251;51.326;12.370;2023-03-23T03:18:25;12.84;69.37
71436;SHT31;59251;51.326;12.370;2023-03-23T03:20:55;12.78;69.39
71436;SHT31;59251;51.326;12.370;2023-03-23T03:23:25;12.78;69.65
71436;SHT31;59251;51.326;12.370;2023-03-23T03:25:53;12.77;69.91
71436;SHT31;59251;51.326;12.370;2023-03-23T03:28:22;12.81;69.98
71436;SHT31;59251;51.326;12.370;2023-03-23T03:30:54;12.74;70.27
71436;SHT31;59251;51.326;12.370;2023-03-23T03:33:22;12.75;69.97
71436;SHT31;59251;51.326;12.370;2023-03-23T03:35:52;12.74;70.06
71436;SHT31;59251;51.326;12.370;2023-03-23T03:38:19;12.78;69.92
71436;SHT31;59251;51.326;12.370;2023-03-23T03:40:45;12.85;69.77
71436;SHT31;59251;51.326;12.370;2023-03-23T03:43:10;12.85;69.73
71436;SHT31;59251;51.326;12.370;2023-03-23T03:45:36;12.85;69.86
71436;SHT31;59251;51.326;12.370;2023-03-23T03:48:01;12.95;69.44
71436;SHT31;59251;51.326;12.370;2023-03-23T03:50:27;12.95;69.65
71436;SHT31;59251;51.326;12.370;2023-03-23T03:52:53;13.01;69.34
71436;SHT31;59251;51.326;12.370;2023-03-23T03:55:18;12.96;69.42
71436;SHT31;59251;51.326;12.370;2023-03-23T03:57:44;13.05;69.24
71436;SHT31;59251;51.326;12.370;2023-03-23T04:00:10;13.12;69.10
71436;SHT31;59251;51.326;12.370;2023-03-23T04:02:43;12.91;69.61
71436;SHT31;59251;51.326;12.370;2023-03-23T04:05:09;12.98;69.52
71436;SHT31;59251;51.326;12.370;2023-03-23T04:07:36;12.93;69.54
71436;SHT31;59251;51.326;12.370;2023-03-23T04:10:06;12.91;69.54
71436;SHT31;59251;51.326;12.370;2023-03-23T04:12:32;13.01;69.46
71436;SHT31;59251;51.326;12.370;2023-03-23T04:14:57;12.99;69.43
71436;SHT31;59251;51.326;12.370;2023-03-23T04:17:23;13.01;69.34
71436;SHT31;59251;51.326;12.370;2023-03-23T04:19:51;13.15;69.12
71436;SHT31;59251;51.326;12.370;2023-03-23T04:22:16;13.18;69.17
71436;SHT31;59251;51.326;12.370;2023-03-23T04:24:42;13.06;69.28
71436;SHT31;59251;51.326;12.370;2023-03-23T04:27:07;13.23;68.90
71436;SHT31;59251;51.326;12.370;2023-03-23T04:29:33;13.08;69.24
71436;SHT31;59251;51.326;12.370;2023-03-23T04:31:59;13.15;69.15
71436;SHT31;59251;51.326;12.370;2023-03-23T04:34:26;13.09;69.27
71436;SHT31;59251;51.326;12.370;2023-03-23T04:36:51;13.08;69.36
71436;SHT31;59251;51.326;12.370;2023-03-23T04:39:18;13.09;69.36
71436;SHT31;59251;51.326;12.370;2023-03-23T04:41:43;13.13;69.53
71436;SHT31;59251;51.326;12.370;2023-03-23T04:44:09;13.24;69.07
71436;SHT31;59251;51.326;12.370;2023-03-23T04:46:34;13.18;69.16
71436;SHT31;59251;51.326;12.370;2023-03-23T04:49:00;13.26;69.12
71436;SHT31;59251;51.326;12.370;2023-03-23T04:51:26;13.08;69.57
71436;SHT31;59251;51.326;12.370;2023-03-23T04:53:53;12.99;69.96
71436;SHT31;59251;51.326;12.370;2023-03-23T04:56:19;12.92;70.26
71436;SHT31;59251;51.326;12.370;2023-03-23T04:58:45;13.06;69.76
71436;SHT31;59251;51.326;12.370;2023-03-23T05:01:11;12.91;70.41
71436;SHT31;59251;51.326;12.370;2023-03-23T05:03:41;12.91;70.55
71436;SHT31;59251;51.326;12.370;2023-03-23T05:06:07;12.89;70.95
71436;SHT31;59251;51.326;12.370;2023-03-23T05:08:32;13.06;70.40
71436;SHT31;59251;51.326;12.370;2023-03-23T05:11:00;13.05;70.56
71436;SHT31;59251;51.326;12.370;2023-03-23T05:13:27;12.98;70.75
71436;SHT31;59251;51.326;12.370;2023-03-23T05:15:53;12.99;70.97
71436;SHT31;59251;51.326;12.370;2023-03-23T05:18:20;13.02;70.85
71436;SHT31;59251;51.326;12.370;2023-03-23T05:20:46;12.93;71.36
71436;SHT31;59251;51.326;12.370;2023-03-23T05:23:12;13.02;71.44
71436;SHT31;59251;51.326;12.370;2023-03-23T05:25:38;13.09;71.03
71436;SHT31;59251;51.326;12.370;2023-03-23T05:28:09;13.10;70.96
71436;SHT31;59251;51.326;12.370;2023-03-23T05:30:36;13.09;70.99
71436;SHT31;59251;51.326;12.370;2023-03-23T05:33:01;13.08;71.23
71436;SHT31;59251;51.326;12.370;2023-03-23T05:35:28;13.03;71.60
71436;SHT31;59251;51.326;12.370;2023-03-23T05:37:54;13.13;72.29
71436;SHT31;59251;51.326;12.370;2023-03-23T05:40:20;12.92;73.52
71436;SHT31;59251;51.326;12.370;2023-03-23T05:42:47;13.03;73.23
71436;SHT31;59251;51.326;12.370;2023-03-23T05:45:13;12.85;74.27
71436;SHT31;59251;51.326;12.370;2023-03-23T05:47:39;13.01;73.65
71436;SHT31;59251;51.326;12.370;2023-03-23T05:50:07;12.92;73.77
71436;SHT31;59251;51.326;12.370;2023-03-23T05:52:34;12.91;74.52
71436;SHT31;59251;51.326;12.370;2023-03-23T05:55:01;13.09;73.41
71436;SHT31;59251;51.326;12.370;2023-03-23T05:57:26;12.96;73.84
71436;SHT31;59251;51.326;12.370;2023-03-23T05:59:52;13.02;73.50
71436;SHT31;59251;51.326;12.370;2023-03-23T06:02:18;13.05;73.18
71436;SHT31;59251;51.326;12.370;2023-03-23T06:04:43;13.12;73.27
71436;SHT31;59251;51.326;12.370;2023-03-23T06:07:09;13.05;73.37
71436;SHT31;59251;51.326;12.370;2023-03-23T06:09:40;13.18;72.83
71436;SHT31;59251;51.326;12.370;2023-03-23T06:12:06;13.18;72.93
71436;SHT31;59251;51.326;12.370;2023-03-23T06:14:32;12.98;74.16
71436;SHT31;59251;51.326;12.370;2023-03-23T06:16:57;12.96;74.80
71436;SHT31;59251;51.326;12.370;2023-03-23T06:19:22;12.87;76.00
71436;SHT31;59251;51.326;12.370;2023-03-23T06:21:48;13.08;75.25
71436;SHT31;59251;51.326;12.370;2023-03-23T06:24:14;13.09;75.77
71436;SHT31;59251;51.326;12.370;2023-03-23T06:26:40;12.91;77.32
71436;SHT31;59251;51.326;12.370;2023-03-23T06:29:09;12.85;77.14
71436;SHT31;59251;51.326;12.370;2023-03-23T06:31:44;12.67;79.22
71436;SHT31;59251;51.326;12.370;2023-03-23T06:34:10;12.57;80.18
71436;SHT31;59251;51.326;12.370;2023-03-23T06:36:37;12.67;79.84
71436;SHT31;59251;51.326;12.370;2023-03-23T06:39:03;12.64;79.65
71436;SHT31;59251;51.326;12.370;2023-03-23T06:41:33;12.74;78.96
71436;SHT31;59251;51.326;12.370;2023-03-23T06:43:59;12.67;78.94
71436;SHT31;59251;51.326;12.370;2023-03-23T06:46:26;12.77;78.86
71436;SHT31;59251;51.326;12.370;2023-03-23T06:48:52;12.95;77.39
71436;SHT31;59251;51.326;12.370;2023-03-23T06:51:18;13.05;77.45
71436;SHT31;59251;51.326;12.370;2023-03-23T06:53:43;13.09;77.72
71436;SHT31;59251;51.326;12.370;2023-03-23T06:56:09;13.05;77.91
71436;SHT31;59251;51.326;12.370;2023-03-23T06:58:34;12.85;77.79
71436;SHT31;59251;51.326;12.370;2023-03-23T07:01:00;13.01;78.21
71436;SHT31;59251;51.326;12.370;2023-03-23T07:03:26;13.13;77.51
71436;SHT31;59251;51.326;12.370;2023-03-23T07:05:53;13.20;77.43
71436;SHT31;59251;51.326;12.370;2023-03-23T07:08:18;13.26;77.40
71436;SHT31;59251;51.326;12.370;2023-03-23T07:10:43;13.08;78.09
71436;SHT31;59251;51.326;12.370;2023-03-23T07:13:09;13.20;76.82
71436;SHT31;59251;51.326;12.370;2023-03-23T07:15:35;13.12;77.57
71436;SHT31;59251;51.326;12.370;2023-03-23T07:18:00;13.01;78.08
71436;SHT31;59251;51.326;12.370;2023-03-23T07:20:26;13.12;78.37
71436;SHT31;59251;51.326;12.370;2023-03-23T07:22:53;13.01;78.74
71436;SHT31;59251;51.326;12.370;2023-03-23T07:25:18;13.06;78.53
71436;SHT31;59251;51.326;12.370;2023-03-23T07:27:45;13.09;78.93
71436;SHT31;59251;51.326;12.370;2023-03-23T07:30:12;12.96;79.41
71436;SHT31;59251;51.326;12.370;2023-03-23T07:32:38;13.03;79.60
71436;SHT31;59251;51.326;12.370;2023-03-23T07:35:03;12.99;79.35
71436;SHT31;59251;51.326;12.370;2023-03-23T07:37:29;13.03;80.04
71436;SHT31;59251;51.326;12.370;2023-03-23T07:39:55;12.95;79.68
71436;SHT31;59251;51.326;12.370;2023-03-23T07:42:20;13.06;79.83
71436;SHT31;59251;51.326;12.370;2023-03-23T07:44:46;13.12;79.65
71436;SHT31;59251;51.326;12.370;2023-03-23T07:47:11;13.20;79.35
71436;SHT31;59251;51.326;12.370;2023-03-23T07:49:37;13.01;79.44
71436;SHT31;59251;51.326;12.370;2023-03-23T07:52:02;13.20;79.63
71436;SHT31;59251;51.326;12.370;2023-03-23T07:54:28;13.22;79.09
71436;SHT31;59251;51.326;12.370;2023-03-23T07:56:53;13.35;79.23
71436;SHT31;59251;51.326;12.370;2023-03-23T07:59:18;13.15;79.73
71436;SHT31;59251;51.326;12.370;2023-03-23T08:01:44;13.40;79.08
71436;SHT31;59251;51.326;12.370;2023-03-23T08:04:09;13.26;80.41
71436;SHT31;59251;51.326;12.370;2023-03-23T08:06:35;13.35;79.49
71436;SHT31;59251;51.326;12.370;2023-03-23T08:09:01;13.53;79.79
71436;SHT31;59251;51.326;12.370;2023-03-23T08:11:28;13.13;80.83
71436;SHT31;59251;51.326;12.370;2023-03-23T08:13:53;13.23;80.50
71436;SHT31;59251;51.326;12.370;2023-03-23T08:16:19;13.40;80.41
71436;SHT31;59251;51.326;12.370;2023-03-23T08:18:45;13.23;80.98
71436;SHT31;59251;51.326;12.370;2023-03-23T08:21:11;13.57;79.98
71436;SHT31;59251;51.326;12.370;2023-03-23T08:23:38;13.24;81.27
71436;SHT31;59251;51.326;12.370;2023-03-23T08:26:05;13.29;80.97
71436;SHT31;59251;51.326;12.370;2023-03-23T08:28:32;13.10;82.50
71436;SHT31;59251;51.326;12.370;2023-03-23T08:30:57;13.20;82.32
71436;SHT31;59251;51.326;12.370;2023-03-23T08:33:23;13.09;82.74
71436;SHT31;59251;51.326;12.370;2023-03-23T08:35:56;13.26;82.68
71436;SHT31;59251;51.326;12.370;2023-03-23T08:38:22;13.23;82.58
71436;SHT31;59251;51.326;12.370;2023-03-23T08:40:47;13.33;82.59
71436;SHT31;59251;51.326;12.370;2023-03-23T08:43:13;13.39;82.63
71436;SHT31;59251;51.326;12.370;2023-03-23T08:45:38;13.27;82.40
71436;SHT31;59251;51.326;12.370;2023-03-23T08:48:04;13.57;81.23
71436;SHT31;59251;51.326;12.370;2023-03-23T08:50:30;14.02;80.16
71436;SHT31;59251;51.326;12.370;2023-03-23T08:52:56;14.35;78.81
71436;SHT31;59251;51.326;12.370;2023-03-23T08:55:21;13.87;78.95
71436;SHT31;59251;51.326;12.370;2023-03-23T08:57:47;14.46;78.34
71436;SHT31;59251;51.326;12.370;2023-03-23T09:00:16;14.46;77.72
71436;SHT31;59251;51.326;12.370;2023-03-23T09:02:47;14.55;77.61
71436;SHT31;59251;51.326;12.370;2023-03-23T09:05:18;14.52;78.03
71436;SHT31;59251;51.326;12.370;2023-03-23T09:07:46;14.85;76.45
71436;SHT31;59251;51.326;12.370;2023-03-23T09:10:13;14.62;76.14
71436;SHT31;59251;51.326;12.370;2023-03-23T09:12:40;14.95;76.05
71436;SHT31;59251;51.326;12.370;2023-03-23T09:15:07;15.41;74.74
71436;SHT31;59251;51.326;12.370;2023-03-23T09:17:48;15.46;74.08
71436;SHT31;59251;51.326;12.370;2023-03-23T09:20:17;15.70;73.19
71436;SHT31;59251;51.326;12.370;2023-03-23T09:22:47;15.48;72.04
71436;SHT31;59251;51.326;12.370;2023-03-23T09:25:16;15.60;73.00
71436;SHT31;59251;51.326;12.370;2023-03-23T09:27:44;15.35;73.59
71436;SHT31;59251;51.326;12.370;2023-03-23T09:30:13;15.32;73.33
71436;SHT31;59251;51.326;12.370;2023-03-23T09:32:39;15.52;73.14
71436;SHT31;59251;51.326;12.370;2023-03-23T09:35:07;15.48;73.56
71436;SHT31;59251;51.326;12.370;2023-03-23T09:37:34;15.73;72.77
71436;SHT31;59251;51.326;12.370;2023-03-23T09:40:01;15.59;72.94
71436;SHT31;59251;51.326;12.370;2023-03-23T09:47:37;15.96;71.88
71436;SHT31;59251;51.326;12.370;2023-03-23T09:50:10;15.70;72.27
71436;SHT31;59251;51.326;12.370;2023-03-23T09:52:42;15.89;71.33
71436;SHT31;59251;51.326;12.370;2023-03-23T09:55:16;16.14;70.32
71436;SHT31;59251;51.326;12.370;2023-03-23T09:58:25;15.97;71.04
71436;SHT31;59251;51.326;12.370;2023-03-23T10:00:59;15.83;70.96
71436;SHT31;59251;51.326;12.370;2023-03-23T10:03:31;16.10;70.39
71436;SHT31;59251;51.326;12.370;2023-03-23T10:05:57;16.14;69.66
71436;SHT31;59251;51.326;12.370;2023-03-23T10:08:25;15.94;70.90
71436;SHT31;59251;51.326;12.370;2023-03-23T10:16:11;16.38;69.59
71436;SHT31;59251;51.326;12.370;2023-03-23T10:18:41;16.38;69.19
71436;SHT31;59251;51.326;12.370;2023-03-23T10:21:22;16.08;69.03
71436;SHT31;59251;51.326;12.370;2023-03-23T10:29:23;16.41;67.53
71436;SHT31;59251;51.326;12.370;2023-03-23T10:31:54;16.65;66.99
71436;SHT31;59251;51.326;12.370;2023-03-23T10:37:19;16.69;66.74
71436;SHT31;59251;51.326;12.370;2023-03-23T10:39:55;16.49;66.44
71436;SHT31;59251;51.326;12.370;2023-03-23T10:42:40;16.59;67.20
71436;SHT31;59251;51.326;12.370;2023-03-23T10:45:27;16.32;67.38
71436;SHT31;59251;51.326;12.370;2023-03-23T10:50:27;16.58;66.53
71436;SHT31;59251;51.326;12.370;2023-03-23T10:52:57;16.47;66.78
71436;SHT31;59251;51.326;12.370;2023-03-23T10:55:23;16.36;66.96
71436;SHT31;59251;51.326;12.370;2023-03-23T10:58:03;16.21;67.22
71436;SHT31;59251;51.326;12.370;2023-03-23T11:00:30;16.45;66.71
71436;SHT31;59251;51.326;12.370;2023-03-23T11:03:05;16.79;65.60
71436;SHT31;59251;51.326;12.370;2023-03-23T11:05:55;16.72;65.79
71436;SHT31;59251;51.326;12.370;2023-03-23T11:08:31;16.89;64.95
71436;SHT31;59251;51.326;12.370;2023-03-23T11:11:14;16.27;65.53
71436;SHT31;59251;51.326;12.370;2023-03-23T11:13:46;16.58;65.20
71436;SHT31;59251;51.326;12.370;2023-03-23T11:16:26;16.73;64.42
71436;SHT31;59251;51.326;12.370;2023-03-23T11:18:53;16.77;64.10
71436;SHT31;59251;51.326;12.370;2023-03-23T11:21:20;16.76;63.24
71436;SHT31;59251;51.326;12.370;2023-03-23T11:23:58;16.71;63.60
71436;SHT31;59251;51.326;12.370;2023-03-23T11:26:27;16.56;63.80
71436;SHT31;59251;51.326;12.370;2023-03-23T11:29:04;16.32;65.31
71436;SHT31;59251;51.326;12.370;2023-03-23T11:31:35;16.28;65.51
71436;SHT31;59251;51.326;12.370;2023-03-23T11:34:04;16.18;65.92
71436;SHT31;59251;51.326;12.370;2023-03-23T11:36:36;16.18;66.57
71436;SHT31;59251;51.326;12.370;2023-03-23T11:39:16;16.21;65.30
71436;SHT31;59251;51.326;12.370;2023-03-23T11:41:43;15.87;65.39
71436;SHT31;59251;51.326;12.370;2023-03-23T11:44:10;15.89;65.25
71436;SHT31;59251;51.326;12.370;2023-03-23T11:46:46;15.85;65.48
71436;SHT31;59251;51.326;12.370;2023-03-23T11:49:24;16.16;64.80
71436;SHT31;59251;51.326;12.370;2023-03-23T11:51:55;16.07;65.09
71436;SHT31;59251;51.326;12.370;2023-03-23T11:54:35;16.16;65.76
71436;SHT31;59251;51.326;12.370;2023-03-23T11:57:07;16.17;65.59
71436;SHT31;59251;51.326;12.370;2023-03-23T11:59:35;16.51;65.14
71436;SHT31;59251;51.326;12.370;2023-03-23T12:07:49;16.51;65.33
71436;SHT31;59251;51.326;12.370;2023-03-23T12:23:44;16.64;65.98
71436;SHT31;59251;51.326;12.370;2023-03-23T12:26:18;16.44;66.64
71436;SHT31;59251;51.326;12.370;2023-03-23T12:36:53;16.36;67.32
71436;SHT31;59251;51.326;12.370;2023-03-23T12:48:52;17.10;63.59
71436;SHT31;59251;51.326;12.370;2023-03-23T12:54:01;17.23;63.67
71436;SHT31;59251;51.326;12.370;2023-03-23T12:56:34;17.55;62.88
71436;SHT31;59251;51.326;12.370;2023-03-23T12:59:20;17.60;62.31
71436;SHT31;59251;51.326;12.370;2023-03-23T13:01:56;17.67;61.52
71436;SHT31;59251;51.326;12.370;2023-03-23T13:04:27;17.58;60.00
71436;SHT31;59251;51.326;12.370;2023-03-23T13:06:57;17.62;59.26
71436;SHT31;59251;51.326;12.370;2023-03-23T13:09:46;17.62;59.61
71436;SHT31;59251;51.326;12.370;2023-03-23T13:12:14;17.60;60.06
71436;SHT31;59251;51.326;12.370;2023-03-23T13:17:20;17.60;59.63
71436;SHT31;59251;51.326;12.370;2023-03-23T13:22:39;17.32;60.10
71436;SHT31;59251;51.326;12.370;2023-03-23T13:25:14;17.13;60.50
71436;SHT31;59251;51.326;12.370;2023-03-23T13:27:40;17.04;60.85
71436;SHT31;59251;51.326;12.370;2023-03-23T13:30:19;16.90;61.12
71436;SHT31;59251;51.326;12.370;2023-03-23T13:32:50;16.72;61.30
71436;SHT31;59251;51.326;12.370;2023-03-23T13:35:17;16.68;61.76
71436;SHT31;59251;51.326;12.370;2023-03-23T13:37:50;16.35;62.34
71436;SHT31;59251;51.326;12.370;2023-03-23T13:40:30;16.36;63.16
71436;SHT31;59251;51.326;12.370;2023-03-23T13:42:59;16.18;63.85
71436;SHT31;59251;51.326;12.370;2023-03-23T13:53:27;16.31;64.20
71436;SHT31;59251;51.326;12.370;2023-03-23T13:56:20;16.16;64.94
71436;SHT31;59251;51.326;12.370;2023-03-23T13:58:51;16.22;65.08
71436;SHT31;59251;51.326;12.370;2023-03-23T14:01:32;16.08;65.60
71436;SHT31;59251;51.326;12.370;2023-03-23T14:03:59;16.06;65.98
71436;SHT31;59251;51.326;12.370;2023-03-23T14:06:33;15.85;66.07
71436;SHT31;59251;51.326;12.370;2023-03-23T14:09:11;16.01;66.09
71436;SHT31;59251;51.326;12.370;2023-03-23T14:11:55;16.04;66.18
71436;SHT31;59251;51.326;12.370;2023-03-23T14:14:30;15.97;66.21
71436;SHT31;59251;51.326;12.370;2023-03-23T14:17:16;15.79;66.74
71436;SHT31;59251;51.326;12.370;2023-03-23T14:19:50;15.86;66.41
71436;SHT31;59251;51.326;12.370;2023-03-23T14:22:28;15.96;66.28
71436;SHT31;59251;51.326;12.370;2023-03-23T14:25:17;15.91;65.97
71436;SHT31;59251;51.326;12.370;2023-03-23T14:27:44;15.80;66.12
71436;SHT31;59251;51.326;12.370;2023-03-23T14:30:20;16.00;66.37
71436;SHT31;59251;51.326;12.370;2023-03-23T14:32:46;15.85;66.56
71436;SHT31;59251;51.326;12.370;2023-03-23T14:35:21;15.94;66.41
71436;SHT31;59251;51.326;12.370;2023-03-23T14:37:47;15.79;67.29
71436;SHT31;59251;51.326;12.370;2023-03-23T14:40:15;16.01;66.98
71436;SHT31;59251;51.326;12.370;2023-03-23T14:42:42;16.13;66.66
71436;SHT31;59251;51.326;12.370;2023-03-23T14:45:12;16.10;66.99
71436;SHT31;59251;51.326;12.370;2023-03-23T14:47:43;15.87;67.53
71436;SHT31;59251;51.326;12.370;2023-03-23T14:50:40;15.80;67.79
71436;SHT31;59251;51.326;12.370;2023-03-23T14:55:45;15.67;68.44
71436;SHT31;59251;51.326;12.370;2023-03-23T14:58:14;15.86;68.21
71436;SHT31;59251;51.326;12.370;2023-03-23T15:00:45;15.94;68.19
71436;SHT31;59251;51.326;12.370;2023-03-23T15:03:13;15.70;68.53
71436;SHT31;59251;51.326;12.370;2023-03-23T15:05:46;15.79;68.58
71436;SHT31;59251;51.326;12.370;2023-03-23T15:08:18;15.67;69.03
71436;SHT31;59251;51.326;12.370;2023-03-23T15:10:55;15.67;69.11
71436;SHT31;59251;51.326;12.370;2023-03-23T15:13:21;15.67;69.13
71436;SHT31;59251;51.326;12.370;2023-03-23T15:15:47;15.60;69.45
71436;SHT31;59251;51.326;12.370;2023-03-23T15:18:30;15.56;69.68
71436;SHT31;59251;51.326;12.370;2023-03-23T15:20:56;15.53;69.91
71436;SHT31;59251;51.326;12.370;2023-03-23T15:23:27;15.43;70.30
71436;SHT31;59251;51.326;12.370;2023-03-23T15:25:54;15.42;70.46
71436;SHT31;59251;51.326;12.370;2023-03-23T15:28:27;15.35;70.87
71436;SHT31;59251;51.326;12.370;2023-03-23T15:30:55;15.36;70.67
71436;SHT31;59251;51.326;12.370;2023-03-23T15:33:23;15.49;70.44
71436;SHT31;59251;51.326;12.370;2023-03-23T15:35:54;15.35;70.43
71436;SHT31;59251;51.326;12.370;2023-03-23T15:38:31;15.42;70.53
71436;SHT31;59251;51.326;12.370;2023-03-23T15:41:01;15.34;70.79
71436;SHT31;59251;51.326;12.370;2023-03-23T15:43:30;15.41;70.41
71436;SHT31;59251;51.326;12.370;2023-03-23T15:48:49;15.45;70.55
71436;SHT31;59251;51.326;12.370;2023-03-23T15:51:16;15.35;70.58
71436;SHT31;59251;51.326;12.370;2023-03-23T15:53:43;15.41;71.04
71436;SHT31;59251;51.326;12.370;2023-03-23T15:56:10;15.45;71.22
71436;SHT31;59251;51.326;12.370;2023-03-23T15:58:36;15.24;72.01
71436;SHT31;59251;51.326;12.370;2023-03-23T16:01:07;15.24;72.19
71436;SHT31;59251;51.326;12.370;2023-03-23T16:03:53;15.22;72.30
71436;SHT31;59251;51.326;12.370;2023-03-23T16:06:21;15.18;72.45
71436;SHT31;59251;51.326;12.370;2023-03-23T16:08:47;15.31;71.94
71436;SHT31;59251;51.326;12.370;2023-03-23T16:11:14;15.15;72.52
71436;SHT31;59251;51.326;12.370;2023-03-23T16:13:40;15.39;71.98
71436;SHT31;59251;51.326;12.370;2023-03-23T16:16:17;15.36;71.94
71436;SHT31;59251;51.326;12.370;2023-03-23T16:18:43;15.42;71.69
71436;SHT31;59251;51.326;12.370;2023-03-23T16:21:08;15.42;71.37
71436;SHT31;59251;51.326;12.370;2023-03-23T16:23:34;15.46;71.48
71436;SHT31;59251;51.326;12.370;2023-03-23T16:25:59;15.41;71.68
71436;SHT31;59251;51.326;12.370;2023-03-23T16:28:25;15.21;71.83
71436;SHT31;59251;51.326;12.370;2023-03-23T16:30:50;15.41;71.49
71436;SHT31;59251;51.326;12.370;2023-03-23T16:33:15;15.08;72.33
71436;SHT31;59251;51.326;12.370;2023-03-23T16:35:41;15.25;71.93
71436;SHT31;59251;51.326;12.370;2023-03-23T16:38:12;15.12;72.50
71436;SHT31;59251;51.326;12.370;2023-03-23T16:40:38;15.04;72.47
71436;SHT31;59251;51.326;12.370;2023-03-23T16:43:03;15.04;72.20
71436;SHT31;59251;51.326;12.370;2023-03-23T16:45:29;15.25;71.60
71436;SHT31;59251;51.326;12.370;2023-03-23T16:47:54;15.25;71.39
71436;SHT31;59251;51.326;12.370;2023-03-23T16:50:27;15.24;71.70
71436;SHT31;59251;51.326;12.370;2023-03-23T16:52:53;14.95;72.18
71436;SHT31;59251;51.326;12.370;2023-03-23T16:55:18;14.84;72.85
71436;SHT31;59251;51.326;12.370;2023-03-23T16:57:44;15.04;72.17
71436;SHT31;59251;51.326;12.370;2023-03-23T17:00:14;14.88;72.81
71436;SHT31;59251;51.326;12.370;2023-03-23T17:02:44;14.84;72.88
71436;SHT31;59251;51.326;12.370;2023-03-23T17:05:10;14.64;73.42
71436;SHT31;59251;51.326;12.370;2023-03-23T17:07:37;14.76;73.09
71436;SHT31;59251;51.326;12.370;2023-03-23T17:10:04;14.80;73.03
71436;SHT31;59251;51.326;12.370;2023-03-23T17:12:30;14.64;73.41
71436;SHT31;59251;51.326;12.370;2023-03-23T17:14:56;14.57;73.71